Terminal Aerodrome Forecast
Issued by NWS Flagstaff, AZ

Home | Current Version | Previous Version | Text Only | Print | Product List | Glossary On
Versions: 1 2 3 4 5 6 7 8 9 10 11 12 13 14 15 16 17 18 19
000
FTUS45 KFGZ 270540
TAFFLG
TAF
KFLG 270540Z 2706/2806 VRB05KT P6SM SCT060
     FM271800 21006KT P6SM SCT050 BKN080
      TEMPO 2719/2723 VRB10G20KT 4SM TSRA BKN040CB
     FM280200 VRB05KT P6SM SCT060=

USA.gov is the U.S. government's official web portal to all federal, state and local government web resources and services.